CheckWX is a tool to help pilots better visualize weather data.  It is not intended as a substitute for an official pre-flight weather briefing.

08:57:50 UTC

KMWT METAR
Mount Ida Airport
Mount Ida, Arkansas, USA
Current

17 mins ago

KMWT 190841Z AUTO 00000KT 9SM OVC008 18/17 A2973 RMK AO2 CIG 002V011 T01830172 $
Observed
May-19 @ 08:41 UTC
Visibility
9 SM
Flight Rules
IFR
Cloud Levels
  • Overcast at 800' AGL
Temperature
18°C / 64°F
Dewpoint
17°C / 63°F
Humidity
94%
Altimeter
29.73" Hg
Pressure
1006.82 hPa
Previous

38 mins ago

KMWT 190820Z AUTO 00000KT 10SM BKN003 OVC012 18/17 A2973 RMK AO2 T01780167 $
Observed
May-19 @ 08:20 UTC
Visibility
10 SM
Flight Rules
LIFR
Cloud Levels
  • Broken at 300' AGL
  • Overcast at 1,200' AGL
Temperature
18°C / 64°F
Dewpoint
17°C / 63°F
Humidity
94%
Altimeter
29.73" Hg
Pressure
1006.82 hPa
Previous

53 mins ago

KMWT 190805Z AUTO 00000KT 10SM SCT003 OVC011 18/17 A2973 RMK AO2 T01780167 $
Observed
May-19 @ 08:05 UTC
Visibility
10 SM
Flight Rules
MVFR
Cloud Levels
  • Scattered at 300' AGL
  • Overcast at 1,100' AGL
Temperature
18°C / 64°F
Dewpoint
17°C / 63°F
Humidity
94%
Altimeter
29.73" Hg
Pressure
1006.82 hPa